Time;durP1;ratioP1;P1;durP2;ratioP2;P2;SDS_P1;SDS_P2;PMS_P1;PMS_P2;Temp;Humidity;BMP_temperature;BMP_pressure;BME280_temperature;BME280_humidity;BME280_pressure;Samples;Min_cycle;Max_cycle;Signal;HPM_P1;HPM_P2
2021/08/23 00:01:45;;;;;;;14.90;9.65;;;15.40;93.40;;;;;;5057826;28;20282;-86
2021/08/23 00:04:11;;;;;;;20.58;9.95;;;15.40;93.40;;;;;;5075867;28;20300;-86
2021/08/23 00:06:37;;;;;;;15.85;9.90;;;15.40;93.30;;;;;;5075727;28;20297;-86
2021/08/23 00:09:03;;;;;;;15.40;10.35;;;15.30;93.30;;;;;;5056871;28;20665;-86
2021/08/23 00:11:29;;;;;;;16.80;10.35;;;15.40;93.40;;;;;;5075690;28;20187;-86
2021/08/23 00:13:54;;;;;;;15.02;10.07;;;15.40;93.30;;;;;;5058831;28;20175;-86
2021/08/23 00:16:20;;;;;;;14.43;9.43;;;15.40;93.40;;;;;;5058225;28;20635;-86
2021/08/23 00:18:47;;;;;;;21.35;10.40;;;15.40;93.40;;;;;;5058015;28;20204;-87
2021/08/23 00:21:20;;;;;;;19.35;10.68;;;15.40;93.40;;;;;;5058116;28;20580;-87
2021/08/23 00:24:05;;;;;;;24.88;10.70;;;15.40;93.40;;;;;;5058247;28;20171;-86
2021/08/23 00:26:32;;;;;;;18.10;10.68;;;15.50;93.40;;;;;;5058767;28;20182;-86
2021/08/23 00:28:58;;;;;;;21.75;10.45;;;15.50;93.30;;;;;;5057874;28;20318;-86
2021/08/23 00:31:23;;;;;;;17.70;10.13;;;15.50;93.30;;;;;;5057512;28;20226;-87
2021/08/23 00:33:49;;;;;;;14.88;10.30;;;15.40;93.30;;;;;;5057483;28;20176;-86
2021/08/23 00:36:15;;;;;;;18.08;10.15;;;15.50;93.30;;;;;;5075265;28;20178;-86
2021/08/23 00:38:40;;;;;;;15.70;10.27;;;15.50;93.20;;;;;;5057478;28;20203;-86
2021/08/23 00:41:06;;;;;;;17.30;10.30;;;15.50;93.30;;;;;;5056684;28;20178;-86
2021/08/23 00:43:32;;;;;;;19.60;9.77;;;15.50;93.30;;;;;;5056826;28;20182;-86
2021/08/23 00:45:58;;;;;;;17.38;10.63;;;15.50;93.30;;;;;;5056694;28;20649;-86
2021/08/23 00:48:24;;;;;;;16.83;9.50;;;15.50;93.30;;;;;;5056644;28;20262;-86
2021/08/23 00:50:50;;;;;;;24.30;9.90;;;15.50;93.30;;;;;;5056636;28;20222;-86
2021/08/23 00:53:16;;;;;;;13.30;9.55;;;15.50;93.20;;;;;;5056488;28;20206;-86
2021/08/23 00:55:43;;;;;;;16.60;10.35;;;15.50;93.10;;;;;;5056573;28;20643;-86
2021/08/23 00:58:09;;;;;;;26.88;9.95;;;15.50;93.10;;;;;;5056550;28;20203;-86
2021/08/23 01:00:39;;;;;;;19.70;9.15;;;15.50;93.10;;;;;;5056581;28;20179;-86
2021/08/23 01:03:18;;;;;;;14.93;9.27;;;15.40;93.00;;;;;;5056305;28;20206;-86
2021/08/23 01:05:45;;;;;;;15.23;8.73;;;15.50;93.00;;;;;;5056388;28;20548;-85
2021/08/23 01:08:16;;;;;;;16.33;8.13;;;15.40;92.90;;;;;;5056182;28;20644;-84
2021/08/23 01:10:48;;;;;;;11.93;8.20;;;15.50;93.00;;;;;;5056153;28;20267;-85
2021/08/23 01:13:14;;;;;;;14.23;7.88;;;15.50;92.90;;;;;;5056384;28;20286;-84
2021/08/23 01:15:40;;;;;;;12.70;8.32;;;15.40;92.80;;;;;;5056114;28;20688;-85
2021/08/23 01:18:06;;;;;;;14.73;8.27;;;15.40;92.80;;;;;;5055919;28;20210;-84
2021/08/23 01:20:38;;;;;;;16.63;7.82;;;15.40;92.80;;;;;;5072966;28;20171;-85
2021/08/23 01:23:05;;;;;;;11.07;7.25;;;15.40;92.70;;;;;;5055772;28;20263;-86
2021/08/23 01:25:35;;;;;;;12.32;7.35;;;15.40;92.60;;;;;;5073793;28;20189;-85
2021/08/23 01:28:15;;;;;;;10.15;7.18;;;15.40;92.60;;;;;;5055909;28;20171;-86
2021/08/23 01:31:06;;;;;;;13.65;6.63;;;15.40;92.50;;;;;;5055878;28;20167;-85
2021/08/23 01:33:32;;;;;;;10.25;6.13;;;15.40;92.50;;;;;;5055748;28;20191;-86
2021/08/23 01:36:01;;;;;;;11.77;6.50;;;15.40;92.50;;;;;;5073611;28;20218;-85
2021/08/23 01:38:27;;;;;;;9.38;6.07;;;15.30;92.40;;;;;;5055643;28;20289;-86
2021/08/23 01:41:04;;;;;;;12.18;6.22;;;15.30;92.30;;;;;;5055722;28;20604;-85
2021/08/23 01:43:30;;;;;;;12.07;6.93;;;15.30;92.20;;;;;;5055634;28;20171;-85
2021/08/23 01:45:56;;;;;;;12.30;5.63;;;15.30;92.20;;;;;;5073467;28;20174;-86
2021/08/23 01:48:21;;;;;;;9.52;5.88;;;15.30;92.20;;;;;;5055480;28;20179;-85
2021/08/23 01:50:47;;;;;;;14.20;6.00;;;15.30;92.30;;;;;;5073471;28;20190;-85
2021/08/23 01:53:15;;;;;;;16.50;6.15;;;15.20;92.30;;;;;;5073325;28;20217;-86
2021/08/23 01:55:41;;;;;;;10.30;5.53;;;15.20;92.20;;;;;;5055420;28;20262;-85
2021/08/23 01:58:06;;;;;;;6.72;4.90;;;15.20;92.30;;;;;;5055387;28;20286;-85
2021/08/23 02:00:32;;;;;;;12.32;5.40;;;15.20;92.20;;;;;;5073305;28;20669;-86
2021/08/23 02:02:57;;;;;;;13.83;6.10;;;15.20;92.20;;;;;;5073276;28;20188;-86
2021/08/23 02:05:23;;;;;;;9.88;5.25;;;15.20;92.20;;;;;;5055602;28;20214;-85
2021/08/23 02:07:49;;;;;;;10.15;5.78;;;15.10;92.10;;;;;;5055317;28;20213;-86
2021/08/23 02:10:15;;;;;;;13.00;5.57;;;15.00;92.10;;;;;;5055324;28;20179;-85
2021/08/23 02:12:41;;;;;;;10.18;5.40;;;15.00;92.10;;;;;;5055354;28;20202;-85
2021/08/23 02:15:07;;;;;;;12.73;5.10;;;14.90;92.00;;;;;;5055322;28;20171;-85
2021/08/23 02:17:32;;;;;;;9.27;5.50;;;14.80;92.00;;;;;;5073093;28;20199;-85
2021/08/23 02:19:58;;;;;;;7.70;5.37;;;14.80;92.00;;;;;;5073126;28;20643;-86
2021/08/23 02:22:23;;;;;;;18.43;5.43;;;14.80;92.00;;;;;;5102668;23;20689;-86
2021/08/23 02:24:49;;;;;;;16.87;6.20;;;14.70;92.00;;;;;;5093393;28;20162;-85
2021/08/23 02:27:15;;;;;;;16.23;6.10;;;14.70;92.10;;;;;;5075306;28;20179;-85
2021/08/23 02:29:40;;;;;;;8.20;5.67;;;14.70;92.10;;;;;;5075809;28;20526;-85
2021/08/23 02:32:06;;;;;;;10.47;5.83;;;14.60;92.10;;;;;;5095128;28;20244;-85
2021/08/23 02:34:32;;;;;;;20.33;7.00;;;14.60;92.20;;;;;;5079562;28;20170;-85
2021/08/23 02:36:57;;;;;;;8.87;6.37;;;14.50;92.30;;;;;;5079286;28;20251;-85
2021/08/23 02:39:24;;;;;;;10.20;6.90;;;14.50;92.30;;;;;;5097452;28;20221;-85
2021/08/23 02:41:53;;;;;;;12.77;6.73;;;14.50;92.30;;;;;;5097361;28;20199;-85
2021/08/23 02:44:22;;;;;;;17.53;9.00;;;14.40;92.30;;;;;;5079273;28;20167;-85
2021/08/23 02:46:49;;;;;;;17.57;7.57;;;14.40;92.30;;;;;;5097316;28;20667;-85
2021/08/23 02:49:16;;;;;;;11.70;6.87;;;14.40;92.40;;;;;;5079410;28;20587;-85
2021/08/23 02:51:45;;;;;;;17.40;7.37;;;14.30;92.40;;;;;;5097102;28;20163;-85
2021/08/23 02:54:12;;;;;;;12.30;7.97;;;14.30;92.50;;;;;;5097284;28;20210;-85
2021/08/23 02:56:38;;;;;;;17.63;7.43;;;14.30;92.50;;;;;;5078968;28;20198;-85
2021/08/23 02:59:04;;;;;;;12.10;6.87;;;14.20;92.50;;;;;;5078885;28;20598;-85
2021/08/23 03:01:29;;;;;;;9.83;7.20;;;14.20;92.60;;;;;;5096866;28;20197;-85
2021/08/23 03:03:55;;;;;;;14.40;8.03;;;14.20;92.50;;;;;;5078615;28;20171;-85
2021/08/23 03:06:21;;;;;;;12.60;7.40;;;14.20;92.60;;;;;;5078880;28;20174;-85
2021/08/23 03:08:46;;;;;;;11.97;7.33;;;14.10;92.60;;;;;;5096912;28;20630;-85
2021/08/23 03:11:13;;;;;;;12.43;7.63;;;14.10;92.60;;;;;;5078696;28;20174;-85
2021/08/23 03:13:41;;;;;;;14.17;8.17;;;14.00;92.60;;;;;;5096701;28;20218;-85
2021/08/23 03:16:07;;;;;;;18.23;8.20;;;14.00;92.60;;;;;;5096608;28;20177;-85
2021/08/23 03:18:33;;;;;;;14.83;7.33;;;14.00;92.70;;;;;;5096524;28;20222;-85
2021/08/23 03:20:59;;;;;;;9.27;7.33;;;14.00;92.70;;;;;;5096940;28;20217;-85
2021/08/23 03:23:25;;;;;;;14.00;7.50;;;14.00;92.60;;;;;;5078313;28;20297;-85
2021/08/23 03:25:51;;;;;;;12.97;7.27;;;13.90;92.70;;;;;;5078438;28;20177;-85
2021/08/23 03:28:17;;;;;;;12.23;7.17;;;13.90;92.60;;;;;;5078383;28;20703;-85
2021/08/23 03:30:42;;;;;;;11.23;6.97;;;13.80;92.60;;;;;;5096588;28;20167;-85
2021/08/23 03:33:09;;;;;;;11.03;7.10;;;13.80;92.60;;;;;;5078194;28;20555;-85
2021/08/23 03:35:35;;;;;;;11.37;8.37;;;13.80;92.70;;;;;;5079199;28;20213;-85
2021/08/23 03:38:02;;;;;;;14.90;8.07;;;13.80;92.80;;;;;;5096298;28;20194;-85
2021/08/23 03:40:28;;;;;;;16.07;7.33;;;13.80;92.80;;;;;;5078185;28;20647;-85
2021/08/23 03:42:54;;;;;;;16.27;7.27;;;13.70;92.70;;;;;;5077170;28;20186;-85
2021/08/23 03:45:19;;;;;;;15.37;7.07;;;13.70;92.70;;;;;;5095678;28;20163;-85
2021/08/23 03:47:45;;;;;;;12.10;7.93;;;13.70;92.70;;;;;;5078211;28;20211;-84
2021/08/23 03:50:11;;;;;;;10.90;7.73;;;13.60;92.70;;;;;;5078292;28;20170;-85
2021/08/23 03:52:36;;;;;;;13.77;7.37;;;13.60;92.70;;;;;;5077743;28;20201;-85
2021/08/23 03:55:04;;;;;;;15.60;7.60;;;13.50;92.80;;;;;;5096083;28;20253;-85
2021/08/23 03:57:32;;;;;;;11.03;7.07;;;13.50;92.70;;;;;;5077723;28;20207;-85
2021/08/23 03:59:58;;;;;;;17.33;7.33;;;13.50;92.80;;;;;;5077907;28;20182;-84
2021/08/23 04:02:24;;;;;;;12.13;7.80;;;13.40;92.80;;;;;;5095973;28;20186;-85
2021/08/23 04:04:50;;;;;;;23.60;7.63;;;13.40;92.80;;;;;;5077667;28;20220;-85
2021/08/23 04:07:16;;;;;;;11.17;7.70;;;13.40;92.90;;;;;;5078339;28;20174;-85
2021/08/23 04:09:41;;;;;;;13.43;7.03;;;13.40;92.80;;;;;;5095486;28;20545;-85
2021/08/23 04:12:07;;;;;;;13.60;7.30;;;13.40;92.90;;;;;;5095526;28;20201;-85
2021/08/23 04:14:33;;;;;;;16.50;6.60;;;13.40;92.80;;;;;;5077536;28;20182;-85
2021/08/23 04:16:59;;;;;;;11.30;6.60;;;13.30;92.80;;;;;;5077387;28;20210;-85
2021/08/23 04:19:24;;;;;;;13.17;6.60;;;13.30;92.70;;;;;;5095816;28;20215;-85
2021/08/23 04:21:50;;;;;;;11.00;7.00;;;13.20;92.70;;;;;;5095242;28;20206;-85
2021/08/23 04:24:16;;;;;;;15.67;6.47;;;13.20;92.80;;;;;;5095484;28;20661;-85
2021/08/23 04:26:41;;;;;;;18.23;6.77;;;13.20;92.80;;;;;;5077229;28;20630;-85
2021/08/23 04:29:07;;;;;;;9.47;6.10;;;13.20;92.70;;;;;;5095226;28;20167;-85
2021/08/23 04:31:34;;;;;;;10.23;6.33;;;13.20;92.70;;;;;;5095107;28;20166;-85
2021/08/23 04:33:59;;;;;;;14.93;6.63;;;13.20;92.80;;;;;;5095152;28;20250;-85
2021/08/23 04:36:25;;;;;;;9.93;5.87;;;13.20;92.80;;;;;;5095461;28;20601;-85
2021/08/23 04:38:51;;;;;;;9.70;6.53;;;13.20;92.80;;;;;;5076802;28;20199;-85
2021/08/23 04:41:16;;;;;;;14.07;6.70;;;13.20;92.80;;;;;;5076783;28;20600;-85
2021/08/23 04:43:42;;;;;;;10.30;5.70;;;13.20;92.80;;;;;;5094847;28;20653;-85
2021/08/23 04:46:07;;;;;;;8.23;5.57;;;13.20;92.80;;;;;;5094862;28;20181;-85
2021/08/23 04:48:33;;;;;;;8.80;5.30;;;13.20;92.80;;;;;;5076609;28;20174;-86
2021/08/23 04:50:59;;;;;;;10.20;6.23;;;13.20;92.80;;;;;;5095108;28;20210;-85
2021/08/23 04:53:24;;;;;;;10.53;5.90;;;13.20;92.70;;;;;;5076513;28;20197;-85
2021/08/23 04:55:51;;;;;;;12.67;5.20;;;13.20;92.70;;;;;;5076505;28;20199;-85
2021/08/23 04:58:17;;;;;;;10.10;4.97;;;13.20;92.70;;;;;;5076530;28;20202;-85
2021/08/23 05:00:42;;;;;;;7.63;5.30;;;13.20;92.60;;;;;;5076438;28;20178;-86
2021/08/23 05:03:09;;;;;;;11.70;4.90;;;13.20;92.60;;;;;;5076509;28;20572;-85
2021/08/23 05:05:35;;;;;;;7.83;4.43;;;13.20;92.60;;;;;;5076625;28;20171;-85
2021/08/23 05:08:00;;;;;;;7.97;4.57;;;13.20;92.50;;;;;;5076320;28;20550;-85
2021/08/23 05:10:26;;;;;;;5.63;4.07;;;13.20;92.50;;;;;;5076311;28;20231;-85
2021/08/23 05:12:56;;;;;;;9.60;4.13;;;13.30;92.50;;;;;;5076511;28;20202;-85
2021/08/23 05:15:23;;;;;;;6.37;4.13;;;13.30;92.50;;;;;;5076638;28;20549;-85
2021/08/23 05:17:48;;;;;;;4.37;3.83;;;13.30;92.40;;;;;;5076052;28;20209;-84
2021/08/23 05:20:14;;;;;;;7.53;4.47;;;13.30;92.40;;;;;;5076196;28;20171;-85
2021/08/23 05:22:40;;;;;;;9.53;3.90;;;13.40;92.30;;;;;;5093963;28;20206;-85
2021/08/23 05:25:07;;;;;;;19.13;5.20;;;13.40;92.30;;;;;;5076133;28;20189;-85
2021/08/23 05:27:33;;;;;;;14.63;3.67;;;13.50;92.30;;;;;;5076137;28;20697;-85
2021/08/23 05:30:05;;;;;;;6.97;3.87;;;13.50;92.20;;;;;;5075913;28;20324;-85
2021/08/23 05:32:31;;;;;;;9.47;3.60;;;13.50;92.20;;;;;;5075755;28;20700;-84
2021/08/23 05:34:57;;;;;;;6.53;3.73;;;13.50;92.20;;;;;;5075819;28;20273;-85
2021/08/23 05:37:23;;;;;;;10.10;4.03;;;13.60;92.10;;;;;;5093768;28;20229;-85
2021/08/23 05:39:49;;;;;;;13.67;4.00;;;13.70;92.20;;;;;;5093944;28;20198;-85
2021/08/23 05:42:15;;;;;;;10.43;4.57;;;13.70;92.20;;;;;;5093872;28;20623;-85
2021/08/23 05:44:41;;;;;;;9.33;4.10;;;13.70;92.10;;;;;;5076780;28;20185;-85
2021/08/23 05:47:07;;;;;;;9.33;3.90;;;13.80;92.20;;;;;;5075708;28;20559;-85
2021/08/23 05:49:33;;;;;;;4.40;3.67;;;13.80;92.10;;;;;;5075578;28;20175;-85
2021/08/23 05:52:00;;;;;;;9.00;4.43;;;13.90;92.10;;;;;;5093573;28;20226;-85
2021/08/23 05:54:26;;;;;;;6.60;3.80;;;13.90;92.10;;;;;;5093652;28;20196;-85
2021/08/23 05:56:53;;;;;;;10.10;4.23;;;14.00;92.20;;;;;;5075461;28;20186;-85
2021/08/23 05:59:19;;;;;;;7.27;3.90;;;14.10;92.20;;;;;;5075497;28;20228;-85
2021/08/23 06:01:45;;;;;;;8.60;4.10;;;14.20;92.10;;;;;;5093542;28;20178;-85
2021/08/23 06:04:10;;;;;;;16.03;4.10;;;14.30;92.10;;;;;;5093505;28;20170;-85
2021/08/23 06:06:38;;;;;;;7.87;3.67;;;14.30;92.00;;;;;;5093220;28;20175;-85
2021/08/23 06:09:04;;;;;;;9.97;5.00;;;14.40;91.70;;;;;;5075406;28;20204;-86
2021/08/23 06:11:30;;;;;;;6.70;3.60;;;14.50;91.70;;;;;;5075413;28;20186;-85
2021/08/23 06:13:55;;;;;;;9.83;4.27;;;14.60;91.60;;;;;;5075576;28;20190;-85
2021/08/23 06:16:21;;;;;;;8.33;3.70;;;14.70;91.40;;;;;;5075439;28;20189;-85
2021/08/23 06:18:46;;;;;;;8.40;3.37;;;14.80;91.10;;;;;;5093254;28;20195;-85
2021/08/23 06:21:12;;;;;;;6.67;3.57;;;14.80;91.00;;;;;;5093278;28;20174;-85
2021/08/23 06:23:38;;;;;;;7.80;3.20;;;14.80;90.90;;;;;;5075388;28;20675;-85
2021/08/23 06:26:03;;;;;;;6.37;3.60;;;14.90;91.00;;;;;;5075179;28;20178;-86
2021/08/23 06:28:29;;;;;;;8.50;3.63;;;15.00;90.70;;;;;;5075174;28;20218;-86
2021/08/23 06:30:55;;;;;;;5.73;3.00;;;15.00;90.50;;;;;;5075207;28;20179;-85
2021/08/23 06:33:20;;;;;;;4.93;3.30;;;15.10;90.70;;;;;;5075090;28;20224;-86
2021/08/23 06:35:46;;;;;;;8.77;3.23;;;15.20;90.30;;;;;;5093505;28;20245;-85
2021/08/23 06:38:12;;;;;;;9.33;3.17;;;15.30;90.40;;;;;;5093365;28;20285;-85
2021/08/23 06:40:40;;;;;;;7.57;2.80;;;15.30;90.50;;;;;;5093163;28;20244;-85
2021/08/23 06:43:05;;;;;;;8.33;2.93;;;15.30;90.30;;;;;;5093051;28;20195;-86
2021/08/23 06:45:31;;;;;;;13.00;3.17;;;15.50;90.50;;;;;;5075175;28;20224;-85
2021/08/23 06:47:56;;;;;;;8.43;3.25;;;15.60;90.40;;;;;;5093204;28;20183;-85
2021/08/23 06:50:22;;;;;;;6.25;3.03;;;15.70;90.20;;;;;;5075230;28;20190;-85
2021/08/23 06:52:48;;;;;;;4.53;2.35;;;15.80;89.90;;;;;;5074881;28;20203;-85
2021/08/23 06:55:13;;;;;;;6.22;2.40;;;15.80;89.60;;;;;;5093027;28;20211;-85
2021/08/23 06:57:39;;;;;;;3.60;2.58;;;15.80;88.90;;;;;;5092980;28;20779;-85
2021/08/23 07:00:06;;;;;;;5.50;2.75;;;16.00;89.80;;;;;;5093846;28;20522;-86
2021/08/23 07:02:31;;;;;;;4.68;2.33;;;16.00;89.20;;;;;;5076705;28;20195;-85
2021/08/23 07:04:57;;;;;;;4.88;2.53;;;16.10;88.80;;;;;;5093893;28;20167;-86
2021/08/23 07:07:22;;;;;;;6.07;3.15;;;16.20;89.20;;;;;;5093674;28;20167;-85
2021/08/23 07:09:48;;;;;;;9.48;3.65;;;16.20;88.70;;;;;;5094819;28;20174;-85
2021/08/23 07:12:14;;;;;;;5.90;2.40;;;16.20;88.30;;;;;;5093434;28;20194;-85
2021/08/23 07:14:39;;;;;;;5.95;3.15;;;16.20;88.30;;;;;;5075790;28;20650;-85
2021/08/23 07:17:06;;;;;;;7.72;2.88;;;16.30;88.20;;;;;;5075935;28;20527;-85
2021/08/23 07:19:33;;;;;;;5.40;2.55;;;16.30;88.30;;;;;;5078639;28;20171;-85
2021/08/23 07:21:58;;;;;;;5.03;1.92;;;16.40;87.80;;;;;;5078055;28;20625;-85
2021/08/23 07:24:24;;;;;;;5.90;2.13;;;16.50;88.20;;;;;;5078389;28;20195;-85
2021/08/23 07:26:50;;;;;;;3.88;2.03;;;16.50;88.00;;;;;;5078327;28;20257;-85
2021/08/23 07:29:17;;;;;;;6.13;2.35;;;16.70;88.70;;;;;;5096613;28;20681;-85
2021/08/23 07:31:43;;;;;;;3.47;1.90;;;16.80;87.40;;;;;;5078193;28;20171;-85
2021/08/23 07:34:09;;;;;;;6.30;2.30;;;16.80;87.30;;;;;;5096555;28;20166;-85
2021/08/23 07:36:35;;;;;;;3.08;1.90;;;16.80;87.10;;;;;;5078126;28;20209;-85
2021/08/23 07:39:00;;;;;;;3.50;2.00;;;16.80;86.60;;;;;;5078056;28;20222;-85
2021/08/23 07:41:26;;;;;;;4.60;2.10;;;16.90;87.00;;;;;;5096103;28;20167;-85
2021/08/23 07:43:51;;;;;;;6.53;2.20;;;17.00;86.60;;;;;;5096377;28;20175;-85
2021/08/23 07:46:17;;;;;;;5.95;2.22;;;17.10;87.50;;;;;;5077868;28;20174;-85
2021/08/23 07:48:44;;;;;;;3.50;2.45;;;17.20;86.30;;;;;;5095945;28;20179;-85
2021/08/23 07:51:13;;;;;;;6.30;2.05;;;17.20;86.50;;;;;;5095884;28;20235;-85
2021/08/23 07:53:39;;;;;;;5.57;2.03;;;17.30;85.50;;;;;;5078052;28;20205;-85
2021/08/23 07:56:05;;;;;;;3.92;1.75;;;17.30;85.50;;;;;;5077781;28;20262;-85
2021/08/23 07:58:31;;;;;;;5.53;2.20;;;17.40;85.30;;;;;;5077718;28;20221;-85
2021/08/23 08:00:57;;;;;;;8.25;2.10;;;17.50;85.50;;;;;;5096170;28;20190;-85
2021/08/23 08:03:22;;;;;;;3.97;2.17;;;17.50;85.50;;;;;;5077562;28;20194;-85
2021/08/23 08:05:48;;;;;;;9.52;2.03;;;17.60;85.10;;;;;;5095770;28;20216;-85
2021/08/23 08:08:14;;;;;;;11.43;3.28;;;17.70;84.70;;;;;;5095454;28;20175;-85
2021/08/23 08:10:39;;;;;;;4.20;1.98;;;17.70;84.30;;;;;;5077899;28;20278;-85
2021/08/23 08:13:07;;;;;;;4.57;1.70;;;17.80;83.80;;;;;;5077360;28;20199;-85
2021/08/23 08:15:33;;;;;;;4.53;1.90;;;17.90;84.10;;;;;;5095550;28;20171;-85
2021/08/23 08:17:59;;;;;;;6.30;2.20;;;18.00;83.50;;;;;;5077225;28;20669;-85
2021/08/23 08:20:26;;;;;;;3.70;1.73;;;18.00;82.60;;;;;;5077513;28;20171;-85
2021/08/23 08:22:52;;;;;;;5.95;1.92;;;18.00;82.40;;;;;;5150795;22;20253;-86
2021/08/23 08:25:18;;;;;;;3.70;1.58;;;18.20;81.60;;;;;;5095248;28;20170;-86
2021/08/23 08:27:43;;;;;;;3.17;1.50;;;18.10;81.40;;;;;;5077155;28;20175;-86
2021/08/23 08:30:14;;;;;;;4.45;1.60;;;18.10;80.10;;;;;;5094677;28;20542;-86
2021/08/23 08:32:40;;;;;;;3.28;1.60;;;18.20;79.50;;;;;;5095101;28;20217;-86
2021/08/23 08:35:06;;;;;;;2.88;1.42;;;18.30;82.20;;;;;;5077013;28;20174;-86
2021/08/23 08:37:31;;;;;;;4.18;1.77;;;18.30;77.40;;;;;;5076780;28;20256;-85
2021/08/23 08:39:57;;;;;;;4.10;1.80;;;18.40;78.90;;;;;;5076921;28;20258;-86
2021/08/23 08:42:23;;;;;;;5.47;1.55;;;18.40;79.90;;;;;;5077901;28;20187;-86
2021/08/23 08:44:49;;;;;;;2.95;1.30;;;18.50;80.60;;;;;;5076868;28;20553;-86
2021/08/23 08:47:17;;;;;;;5.32;1.52;;;18.60;77.70;;;;;;5094855;28;20171;-86
2021/08/23 08:49:44;;;;;;;2.40;1.52;;;18.60;78.00;;;;;;5094788;28;20219;-86
2021/08/23 08:52:12;;;;;;;2.72;1.55;;;18.70;78.70;;;;;;5076647;28;20195;-86
2021/08/23 08:54:39;;;;;;;2.65;1.25;;;18.80;78.90;;;;;;5076654;28;20179;-87
2021/08/23 08:57:05;;;;;;;7.72;1.42;;;18.80;77.50;;;;;;5094568;28;20175;-86
2021/08/23 08:59:34;;;;;;;2.63;1.33;;;18.80;75.20;;;;;;5076548;28;20179;-86
2021/08/23 09:02:00;;;;;;;3.15;1.27;;;18.80;76.70;;;;;;5094600;28;20159;-86
2021/08/23 09:04:31;;;;;;;4.15;1.67;;;18.90;76.00;;;;;;5094812;28;20177;-86
2021/08/23 09:06:58;;;;;;;4.40;1.98;;;18.90;76.40;;;;;;5076570;28;20178;-86
2021/08/23 09:09:26;;;;;;;3.75;1.55;;;18.70;75.00;;;;;;5076381;28;20178;-86
2021/08/23 09:12:09;;;;;;;3.15;1.50;;;18.80;76.50;;;;;;5076340;28;20179;-86
2021/08/23 09:14:51;;;;;;;3.35;1.50;;;19.00;76.60;;;;;;5076915;28;20166;-87
2021/08/23 09:17:17;;;;;;;2.88;1.60;;;19.10;74.90;;;;;;5076149;28;20602;-86
2021/08/23 09:19:43;;;;;;;5.70;2.25;;;19.00;72.80;;;;;;5076194;28;20220;-87
2021/08/23 09:22:16;;;;;;;6.40;1.60;;;19.10;74.50;;;;;;5094656;28;20194;-86
2021/08/23 09:24:42;;;;;;;3.25;1.60;;;19.20;71.90;;;;;;5094385;28;20609;-86
2021/08/23 09:27:12;;;;;;;3.67;1.83;;;19.20;74.50;;;;;;5094227;28;20264;-86
2021/08/23 09:30:01;;;;;;;4.45;1.48;;;19.20;70.60;;;;;;5094124;28;20216;-86
2021/08/23 09:32:29;;;;;;;2.50;1.30;;;19.20;71.70;;;;;;5094092;28;20210;-86
2021/08/23 09:34:55;;;;;;;6.00;1.75;;;19.30;70.70;;;;;;5094142;28;20246;-86
2021/08/23 09:37:26;;;;;;;3.45;1.80;;;19.50;71.20;;;;;;5076424;28;20289;-86
2021/08/23 09:39:54;;;;;;;1.98;1.30;;;19.60;71.40;;;;;;5075865;28;20171;-86
2021/08/23 09:42:24;;;;;;;3.13;1.75;;;19.40;70.10;;;;;;5093157;28;20186;-86
2021/08/23 09:44:51;;;;;;;4.60;1.60;;;19.40;70.90;;;;;;5075949;28;20174;-86
2021/08/23 09:47:17;;;;;;;3.10;1.50;;;19.70;71.50;;;;;;5075865;28;20179;-85
2021/08/23 09:49:45;;;;;;;3.30;1.75;;;19.70;67.10;;;;;;5076754;28;20568;-86
2021/08/23 09:52:22;;;;;;;2.45;1.70;;;19.70;70.30;;;;;;5076265;28;20251;-86
2021/08/23 09:55:09;;;;;;;4.30;1.42;;;19.70;67.80;;;;;;5093783;28;20195;-87
2021/08/23 09:57:41;;;;;;;6.50;1.90;;;19.90;70.30;;;;;;5094019;28;20193;-87
2021/08/23 10:00:11;;;;;;;2.88;1.40;;;20.10;66.30;;;;;;5093777;28;20211;-85
2021/08/23 10:02:48;;;;;;;4.10;1.90;;;20.20;67.90;;;;;;5093612;28;20214;-86
2021/08/23 10:05:19;;;;;;;3.22;1.83;;;20.20;65.60;;;;;;5093675;28;20325;-86
2021/08/23 10:07:46;;;;;;;5.97;1.67;;;20.20;66.60;;;;;;5093508;28;20185;-85
2021/08/23 10:10:12;;;;;;;3.00;1.90;;;20.30;67.90;;;;;;5075400;28;20209;-86
2021/08/23 10:12:39;;;;;;;5.07;1.83;;;20.30;67.30;;;;;;5093485;28;20669;-86
2021/08/23 10:15:06;;;;;;;4.32;1.95;;;20.40;63.30;;;;;;5075492;28;20194;-86
2021/08/23 10:17:36;;;;;;;6.80;2.20;;;20.30;63.30;;;;;;5093413;28;20268;-86
2021/08/23 10:20:11;;;;;;;4.13;1.60;;;20.40;61.90;;;;;;5093705;28;20147;-86
2021/08/23 10:22:40;;;;;;;3.10;2.00;;;20.40;63.70;;;;;;5074953;28;20209;-85
2021/08/23 10:25:08;;;;;;;3.60;2.05;;;20.30;63.70;;;;;;5075345;28;20547;-86
2021/08/23 10:27:35;;;;;;;3.55;1.60;;;20.50;61.40;;;;;;5093591;28;20178;-85
2021/08/23 10:30:01;;;;;;;2.80;1.92;;;20.50;59.90;;;;;;5093478;28;20174;-86
2021/08/23 10:32:35;;;;;;;5.32;1.55;;;20.70;62.20;;;;;;5093406;28;20190;-85
2021/08/23 10:35:21;;;;;;;3.83;1.92;;;20.70;58.50;;;;;;5075237;28;20202;-86
2021/08/23 10:37:50;;;;;;;2.17;1.38;;;20.70;58.20;;;;;;5075806;28;20563;-85
2021/08/23 10:40:20;;;;;;;3.33;1.83;;;20.80;59.70;;;;;;5093213;28;20175;-85
2021/08/23 10:42:47;;;;;;;3.00;1.48;;;20.80;58.30;;;;;;5075029;28;20566;-85
2021/08/23 10:45:17;;;;;;;2.03;1.58;;;20.90;60.70;;;;;;5093486;28;20182;-86
2021/08/23 10:47:44;;;;;;;2.95;1.70;;;21.00;58.50;;;;;;5075058;28;20181;-86
2021/08/23 10:50:21;;;;;;;7.20;1.80;;;21.10;58.40;;;;;;5093451;28;20167;-86
2021/08/23 10:52:48;;;;;;;4.72;1.80;;;21.20;58.60;;;;;;5075956;28;20199;-85
2021/08/23 10:55:26;;;;;;;3.88;2.08;;;21.10;59.10;;;;;;5078865;28;20185;-86
2021/08/23 10:58:05;;;;;;;1.90;1.33;;;21.20;57.30;;;;;;5097234;28;20191;-86
2021/08/23 11:00:43;;;;;;;4.63;1.80;;;21.30;56.90;;;;;;5078705;28;20646;-85
2021/08/23 11:03:10;;;;;;;3.80;1.52;;;21.40;58.00;;;;;;5096753;28;20190;-86
2021/08/23 11:05:37;;;;;;;2.45;1.70;;;21.10;57.20;;;;;;5096806;28;20171;-85
2021/08/23 11:08:10;;;;;;;2.60;1.50;;;21.10;56.00;;;;;;5078663;28;20265;-85
2021/08/23 11:10:39;;;;;;;3.03;1.33;;;21.20;54.00;;;;;;5097323;28;20180;-86
2021/08/23 11:13:16;;;;;;;4.55;1.35;;;21.30;55.30;;;;;;5078462;28;20667;-86
2021/08/23 11:15:43;;;;;;;2.65;1.40;;;21.40;54.80;;;;;;5096715;28;20284;-86
2021/08/23 11:18:15;;;;;;;1.80;1.20;;;21.40;53.90;;;;;;5096527;28;20190;-86
2021/08/23 11:20:52;;;;;;;2.38;1.60;;;21.40;52.10;;;;;;5078997;28;20192;-86
2021/08/23 11:23:24;;;;;;;1.65;1.35;;;21.50;53.40;;;;;;5078209;28;20324;-86
2021/08/23 11:25:52;;;;;;;3.40;1.40;;;21.50;53.80;;;;;;5078296;28;20170;-86
2021/08/23 11:28:20;;;;;;;2.15;1.48;;;21.60;55.20;;;;;;5096576;28;20236;-90
2021/08/23 11:30:51;;;;;;;1.65;1.30;;;21.80;54.40;;;;;;5096416;28;20170;-91
2021/08/23 11:33:33;;;;;;;1.50;1.40;;;21.80;53.40;;;;;;5078729;28;20194;-91
2021/08/23 11:36:01;;;;;;;2.65;1.23;;;21.90;54.60;;;;;;5078871;28;20170;-91
2021/08/23 11:38:36;;;;;;;2.28;1.55;;;21.80;51.30;;;;;;5078825;28;20205;-91
2021/08/23 11:41:03;;;;;;;3.65;1.40;;;21.80;53.80;;;;;;5078920;28;20178;-91
2021/08/23 11:43:30;;;;;;;3.40;1.30;;;21.80;51.40;;;;;;5078695;28;20566;-92
2021/08/23 11:45:57;;;;;;;1.08;0.98;;;21.90;49.80;;;;;;5078372;28;20248;-91
2021/08/23 11:48:23;;;;;;;2.22;1.40;;;21.80;51.00;;;;;;5079187;28;20695;-91
2021/08/23 11:50:49;;;;;;;3.10;1.35;;;21.70;51.00;;;;;;5078452;28;20175;-91
2021/08/23 11:53:16;;;;;;;2.05;1.40;;;21.80;51.50;;;;;;5078890;28;20194;-91
2021/08/23 11:55:44;;;;;;;3.83;1.40;;;21.90;50.80;;;;;;5078214;28;20544;-91
2021/08/23 11:58:15;;;;;;;2.17;1.80;;;22.00;50.80;;;;;;5096566;28;20637;-91
2021/08/23 12:00:43;;;;;;;1.40;1.00;;;21.50;51.90;;;;;;5078118;28;20228;-90
2021/08/23 12:03:12;;;;;;;1.10;1.00;;;21.70;52.00;;;;;;5077848;28;20195;-90
2021/08/23 12:05:41;;;;;;;2.08;1.10;;;21.90;51.00;;;;;;5077149;28;20171;-91
2021/08/23 12:08:20;;;;;;;2.17;1.50;;;21.90;52.80;;;;;;5077910;28;20186;-90
2021/08/23 12:11:00;;;;;;;3.40;1.23;;;22.00;51.60;;;;;;5077664;28;20178;-91
2021/08/23 12:13:38;;;;;;;1.25;1.02;;;21.90;49.80;;;;;;5077652;28;20714;-91
2021/08/23 12:16:11;;;;;;;4.13;1.27;;;22.00;52.80;;;;;;5077665;28;20182;-90
2021/08/23 12:18:39;;;;;;;2.15;0.98;;;22.20;50.80;;;;;;5077889;28;20201;-90
2021/08/23 12:21:09;;;;;;;1.23;1.13;;;22.10;51.20;;;;;;5077640;28;20174;-91
2021/08/23 12:23:47;;;;;;;1.77;1.30;;;22.20;52.60;;;;;;5077425;28;20252;-91
2021/08/23 12:26:14;;;;;;;4.65;1.33;;;22.40;50.80;;;;;;5077519;28;20200;-90
2021/08/23 12:28:50;;;;;;;1.83;1.08;;;22.40;49.80;;;;;;5077421;28;20179;-91
2021/08/23 12:31:17;;;;;;;1.20;1.10;;;22.50;50.90;;;;;;5077312;28;20174;-91
2021/08/23 12:33:43;;;;;;;3.47;1.25;;;22.60;49.30;;;;;;5077218;28;20281;-91
2021/08/23 12:36:09;;;;;;;1.55;1.30;;;22.40;48.50;;;;;;5095425;28;20297;-90
2021/08/23 12:38:34;;;;;;;2.70;1.27;;;22.40;48.40;;;;;;5076986;28;20210;-91
2021/08/23 12:41:00;;;;;;;1.08;1.00;;;22.50;51.00;;;;;;5077432;28;20197;-90
2021/08/23 12:43:26;;;;;;;2.05;1.38;;;22.50;52.20;;;;;;5077343;28;20193;-90
2021/08/23 12:45:51;;;;;;;2.35;1.13;;;22.50;51.30;;;;;;5077298;28;20181;-89